Time;durP1;ratioP1;P1;durP2;ratioP2;P2;SDS_P1;SDS_P2;PMS_P1;PMS_P2;Temp;Humidity;BMP_temperature;BMP_pressure;BME280_temperature;BME280_humidity;BME280_pressure;Samples;Min_cycle;Max_cycle;Signal;HPM_P1;HPM_P2
2021/08/19 00:01:09;;;;;;;;;;;;;;;17.89;55.29;100296.16;1749408;80;20827;-75
2021/08/19 00:03:36;;;;;;;;;;;;;;;17.90;55.32;100300.46;1751548;80;20154;-75
2021/08/19 00:06:02;;;;;;;;;;;;;;;17.92;55.33;100299.92;1760304;80;20171;-75
2021/08/19 00:08:28;;;;;;;;;;;;;;;17.92;55.33;100294.69;1757361;80;20340;-75
2021/08/19 00:10:54;;;;;;;;;;;;;;;17.91;55.42;100295.61;1728592;81;20141;-75
2021/08/19 00:13:20;;;;;;;;;;;;;;;17.92;55.42;100298.61;1749593;80;20154;-75
2021/08/19 00:15:46;;;;;;;;;;;;;;;17.91;55.51;100298.69;1748927;80;20130;-75
2021/08/19 00:18:13;;;;;;;;;;;;;;;17.93;55.55;100299.45;1756632;81;20147;-75
2021/08/19 00:20:39;;;;;;;;;;;;;;;17.93;55.45;100295.53;1746104;80;20248;-75
2021/08/19 00:23:05;;;;;;;;;;;;;;;17.91;55.53;100292.15;1738155;81;20844;-75
2021/08/19 00:25:32;;;;;;;;;;;;;;;17.90;55.66;100288.69;1727168;82;20480;-75
2021/08/19 00:27:59;;;;;;;;;;;;;;;17.91;55.67;100284.30;1751628;81;20103;-75
2021/08/19 00:30:25;;;;;;;;;;;;;;;17.91;55.69;100289.53;1748029;80;20086;-75
2021/08/19 00:32:51;;;;;;;;;;;;;;;17.91;55.71;100282.99;1754107;81;20519;-75
2021/08/19 00:35:17;;;;;;;;;;;;;;;17.89;55.68;100283.08;1737933;81;20251;-75
2021/08/19 00:37:43;;;;;;;;;;;;;;;17.86;55.76;100277.53;1760489;80;20157;-75
2021/08/19 00:40:12;;;;;;;;;;;;;;;17.84;55.73;100282.00;1757229;80;20126;-75
2021/08/19 00:42:38;;;;;;;;;;;;;;;17.83;55.70;100282.08;1743261;81;20129;-75
2021/08/19 00:45:08;;;;;;;;;;;;;;;17.80;55.73;100279.16;1744396;81;20158;-75
2021/08/19 00:47:38;;;;;;;;;;;;;;;17.79;55.81;100281.85;1748967;80;20548;-75
2021/08/19 00:50:05;;;;;;;;;;;;;;;17.77;55.92;100277.16;1755050;81;20092;-75
2021/08/19 00:52:31;;;;;;;;;;;;;;;17.77;55.91;100278.47;1752560;81;20441;-75
2021/08/19 00:54:58;;;;;;;;;;;;;;;17.75;55.94;100273.31;1755488;81;20104;-75
2021/08/19 00:57:24;;;;;;;;;;;;;;;17.75;56.01;100278.55;1762103;80;20128;-75
2021/08/19 00:59:52;;;;;;;;;;;;;;;17.74;55.81;100278.16;1748521;81;20562;-75
2021/08/19 01:02:20;;;;;;;;;;;;;;;17.73;55.96;100276.47;1750628;80;20450;-75
2021/08/19 01:04:46;;;;;;;;;;;;;;;17.73;56.09;100272.55;1721540;80;404754;-75
2021/08/19 01:07:12;;;;;;;;;;;;;;;17.72;56.02;100270.86;1734639;81;20477;-75
2021/08/19 01:09:39;;;;;;;;;;;;;;;17.71;56.08;100278.78;1741602;81;20445;-75
2021/08/19 01:12:06;;;;;;;;;;;;;;;17.70;56.07;100277.93;1753843;80;20410;-75
2021/08/19 01:14:33;;;;;;;;;;;;;;;17.68;56.09;100275.86;1766610;80;20483;-75
2021/08/19 01:17:07;;;;;;;;;;;;;;;17.68;56.16;100277.63;1764387;80;20391;-75
2021/08/19 01:19:35;;;;;;;;;;;;;;;17.68;56.20;100275.02;1719084;80;20379;-75
2021/08/19 01:22:01;;;;;;;;;;;;;;;17.68;56.16;100278.47;1734976;80;20090;-75
2021/08/19 01:24:27;;;;;;;;;;;;;;;17.68;56.02;100271.09;1713374;83;20238;-75
2021/08/19 01:26:53;;;;;;;;;;;;;;;17.66;56.21;100274.27;1768531;80;20538;-75
2021/08/19 01:29:19;;;;;;;;;;;;;;;17.65;56.07;100272.55;1743428;80;20112;-75
2021/08/19 01:32:03;;;;;;;;;;;;;;;17.64;56.22;100273.02;1767076;80;20592;-75
2021/08/19 01:34:30;;;;;;;;;;;;;;;17.62;56.27;100267.02;1760569;80;20584;-75
2021/08/19 01:36:56;;;;;;;;;;;;;;;17.60;56.15;100263.63;1773964;80;20422;-75
2021/08/19 01:39:23;;;;;;;;;;;;;;;17.59;56.27;100268.94;1764971;80;20273;-75
2021/08/19 01:41:52;;;;;;;;;;;;;;;17.57;56.28;100265.09;1775289;80;20475;-75
2021/08/19 01:44:18;;;;;;;;;;;;;;;17.57;56.30;100260.33;1767865;80;20455;-75
2021/08/19 01:46:46;;;;;;;;;;;;;;;17.56;56.38;100257.33;1765008;80;20502;-75
2021/08/19 01:49:12;;;;;;;;;;;;;;;17.56;56.42;100258.63;1759291;80;20578;-75
2021/08/19 01:51:38;;;;;;;;;;;;;;;17.54;56.47;100247.79;1750677;80;20587;-75
2021/08/19 01:54:04;;;;;;;;;;;;;;;17.53;56.42;100250.48;1760353;80;20463;-75
2021/08/19 01:56:31;;;;;;;;;;;;;;;17.52;56.47;100254.86;1757128;80;20439;-75
2021/08/19 01:58:57;;;;;;;;;;;;;;;17.52;56.53;100255.33;1750714;80;20126;-75
2021/08/19 02:01:27;;;;;;;;;;;;;;;17.52;56.48;100257.94;1767303;80;20180;-75
2021/08/19 02:03:54;;;;;;;;;;;;;;;17.51;56.43;100260.17;1756635;80;20349;-75
2021/08/19 02:06:20;;;;;;;;;;;;;;;17.51;56.61;100258.41;1768998;80;20137;-75
2021/08/19 02:08:48;;;;;;;;;;;;;;;17.52;56.61;100254.86;1765449;80;20457;-75
2021/08/19 02:11:14;;;;;;;;;;;;;;;17.52;56.65;100252.70;1747110;80;20169;-75
2021/08/19 02:13:40;;;;;;;;;;;;;;;17.53;56.57;100258.33;1766261;80;20232;-75
2021/08/19 02:16:06;;;;;;;;;;;;;;;17.51;56.63;100258.41;1755909;80;20170;-75
2021/08/19 02:18:32;;;;;;;;;;;;;;;17.51;56.61;100266.24;1754851;80;20170;-75
2021/08/19 02:20:58;;;;;;;;;;;;;;;17.50;56.65;100262.40;1763235;80;20175;-75
2021/08/19 02:23:24;;;;;;;;;;;;;;;17.47;56.59;100257.32;1761504;80;20712;-75
2021/08/19 02:25:50;;;;;;;;;;;;;;;17.46;56.57;100263.47;1745089;80;20188;-75
2021/08/19 02:28:16;;;;;;;;;;;;;;;17.43;56.71;100259.70;1749018;80;20683;-75
2021/08/19 02:30:42;;;;;;;;;;;;;;;17.42;56.77;100256.70;1742573;80;20584;-75
2021/08/19 02:33:08;;;;;;;;;;;;;;;17.41;56.78;100255.86;1755247;80;20590;-75
2021/08/19 02:35:34;;;;;;;;;;;;;;;17.41;56.73;100258.94;1757682;80;20091;-75
2021/08/19 02:38:01;;;;;;;;;;;;;;;17.38;56.83;100259.94;1751255;80;20401;-75
2021/08/19 02:40:29;;;;;;;;;;;;;;;17.39;56.88;100258.16;1756661;80;20561;-75
2021/08/19 02:42:57;;;;;;;;;;;;;;;17.39;56.94;100256.86;1747256;80;20124;-75
2021/08/19 02:45:23;;;;;;;;;;;;;;;17.38;56.94;100257.31;1748064;80;20153;-75
2021/08/19 02:47:49;;;;;;;;;;;;;;;17.40;57.00;100253.32;1749280;80;20175;-75
2021/08/19 02:50:17;;;;;;;;;;;;;;;17.40;56.96;100254.63;1759153;80;20433;-75
2021/08/19 02:52:44;;;;;;;;;;;;;;;17.38;56.93;100253.40;1767222;80;20547;-75
2021/08/19 02:55:28;;;;;;;;;;;;;;;17.36;56.83;100249.17;1740914;81;20154;-76
2021/08/19 02:57:54;;;;;;;;;;;;;;;17.33;56.97;100250.63;1748358;80;20633;-75
2021/08/19 03:00:20;;;;;;;;;;;;;;;17.32;56.98;100246.32;1748522;80;20173;-75
2021/08/19 03:02:46;;;;;;;;;;;;;;;17.31;57.01;100241.55;1730016;81;20168;-75
2021/08/19 03:05:12;;;;;;;;;;;;;;;17.31;57.13;100244.63;1755209;80;20415;-75
2021/08/19 03:07:38;;;;;;;;;;;;;;;17.31;57.18;100242.02;1743997;80;20127;-75
2021/08/19 03:10:06;;;;;;;;;;;;;;;17.31;56.99;100244.63;1751938;80;20231;-75
2021/08/19 03:12:33;;;;;;;;;;;;;;;17.29;57.15;100240.78;1741841;80;20130;-75
2021/08/19 03:14:59;;;;;;;;;;;;;;;17.31;57.19;100239.41;1743991;81;20270;-75
2021/08/19 03:17:27;;;;;;;;;;;;;;;17.30;57.27;100241.17;1755288;80;20257;-75
2021/08/19 03:19:53;;;;;;;;;;;;;;;17.30;57.24;100237.25;1737915;81;20225;-75
2021/08/19 03:22:20;;;;;;;;;;;;;;;17.29;57.25;100232.09;1744824;81;20216;-75
2021/08/19 03:24:48;;;;;;;;;;;;;;;17.28;57.30;100233.87;1759920;79;20201;-75
2021/08/19 03:27:14;;;;;;;;;;;;;;;17.27;57.24;100236.09;1749935;80;20196;-75
2021/08/19 03:29:40;;;;;;;;;;;;;;;17.28;57.40;100231.71;1755008;81;20153;-75
2021/08/19 03:32:07;;;;;;;;;;;;;;;17.27;57.20;100232.17;1752767;80;20172;-75
2021/08/19 03:34:32;;;;;;;;;;;;;;;17.27;57.43;100231.33;1744287;81;20146;-75
2021/08/19 03:36:58;;;;;;;;;;;;;;;17.27;57.51;100232.17;1753538;81;20516;-75
2021/08/19 03:39:25;;;;;;;;;;;;;;;17.26;57.46;100229.17;1749774;80;20820;-75
2021/08/19 03:41:52;;;;;;;;;;;;;;;17.24;57.51;100230.17;1749968;80;20205;-75
2021/08/19 03:44:18;;;;;;;;;;;;;;;17.25;57.59;100233.17;1753573;81;20270;-75
2021/08/19 03:46:44;;;;;;;;;;;;;;;17.25;57.58;100228.79;1751380;81;20218;-75
2021/08/19 03:49:12;;;;;;;;;;;;;;;17.24;57.55;100227.10;1752461;80;20502;-75
2021/08/19 03:51:38;;;;;;;;;;;;;;;17.23;57.45;100228.48;1726415;82;21536;-75
2021/08/19 03:54:03;;;;;;;;;;;;;;;17.21;57.66;100225.94;1757913;80;20193;-75
2021/08/19 03:56:32;;;;;;;;;;;;;;;17.20;57.71;100230.78;1754654;81;20197;-76
2021/08/19 03:58:58;;;;;;;;;;;;;;;17.20;57.65;100229.48;1754743;81;20194;-75
2021/08/19 04:01:24;;;;;;;;;;;;;;;17.21;57.82;100231.17;1746011;80;20173;-75
2021/08/19 04:03:51;;;;;;;;;;;;;;;17.22;57.82;100231.55;1754703;80;20175;-75
2021/08/19 04:06:17;;;;;;;;;;;;;;;17.24;57.89;100240.17;1736474;81;20147;-75
2021/08/19 04:08:43;;;;;;;;;;;;;;;17.24;57.78;100234.09;1753107;81;20149;-75
2021/08/19 04:11:09;;;;;;;;;;;;;;;17.22;57.94;100242.01;1752630;80;20175;-75
2021/08/19 04:13:39;;;;;;;;;;;;;;;17.23;57.93;100242.85;1737891;81;20147;-75
2021/08/19 04:16:08;;;;;;;;;;;;;;;17.23;58.04;100236.32;1762423;79;20266;-75
2021/08/19 04:18:35;;;;;;;;;;;;;;;17.21;57.99;100234.63;1748876;81;20222;-75
2021/08/19 04:21:02;;;;;;;;;;;;;;;17.21;58.10;100239.01;1747671;80;20201;-75
2021/08/19 04:23:28;;;;;;;;;;;;;;;17.20;58.05;100235.55;1748218;81;20107;-75
2021/08/19 04:25:54;;;;;;;;;;;;;;;17.23;58.12;100241.55;1755028;80;20604;-75
2021/08/19 04:28:27;;;;;;;;;;;;;;;17.23;58.19;100242.39;1750596;80;20126;-75
2021/08/19 04:30:53;;;;;;;;;;;;;;;17.23;58.18;100241.55;1757039;80;20124;-75
2021/08/19 04:33:21;;;;;;;;;;;;;;;17.23;58.30;100239.78;1744224;81;20161;-75
2021/08/19 04:35:47;;;;;;;;;;;;;;;17.21;58.16;100239.86;1755142;80;20090;-75
2021/08/19 04:38:13;;;;;;;;;;;;;;;17.21;58.28;100233.78;1748128;81;20173;-75
2021/08/19 04:40:39;;;;;;;;;;;;;;;17.21;58.38;100237.70;1768483;79;20144;-75
2021/08/19 04:43:05;;;;;;;;;;;;;;;17.21;58.55;100242.47;1747258;81;20154;-76
2021/08/19 04:45:32;;;;;;;;;;;;;;;17.24;58.42;100247.16;1758428;80;20103;-76
2021/08/19 04:47:58;;;;;;;;;;;;;;;17.24;58.29;100250.62;1744930;81;20157;-75
2021/08/19 04:50:24;;;;;;;;;;;;;;;17.26;58.37;100254.00;1756353;81;20134;-75
2021/08/19 04:52:51;;;;;;;;;;;;;;;17.25;58.61;100247.55;1753895;80;20090;-75
2021/08/19 04:55:17;;;;;;;;;;;;;;;17.28;58.62;100244.78;1746109;81;20638;-75
2021/08/19 04:57:43;;;;;;;;;;;;;;;17.29;58.75;100249.09;1760770;80;20257;-76
2021/08/19 05:00:11;;;;;;;;;;;;;;;17.32;58.73;100247.63;1745167;81;20190;-75
2021/08/19 05:02:37;;;;;;;;;;;;;;;17.35;58.78;100250.09;1754814;80;20090;-75
2021/08/19 05:05:04;;;;;;;;;;;;;;;17.35;58.76;100260.08;1752519;81;20128;-75
2021/08/19 05:07:30;;;;;;;;;;;;;;;17.37;58.87;100252.16;1744545;81;20179;-75
2021/08/19 05:09:57;;;;;;;;;;;;;;;17.38;58.79;100252.55;1745120;80;20177;-75
2021/08/19 05:12:23;;;;;;;;;;;;;;;17.39;58.82;100251.17;1736914;80;20483;-75
2021/08/19 05:14:49;;;;;;;;;;;;;;;17.40;59.08;100250.25;1751017;80;20242;-75
2021/08/19 05:17:15;;;;;;;;;;;;;;;17.42;59.09;100247.55;1741325;80;20202;-75
2021/08/19 05:19:43;;;;;;;;;;;;;;;17.44;59.16;100250.94;1739632;80;20186;-75
2021/08/19 05:22:09;;;;;;;;;;;;;;;17.47;59.20;100258.17;1768597;80;20238;-75
2021/08/19 05:24:35;;;;;;;;;;;;;;;17.51;59.00;100256.25;1756779;80;20215;-75
2021/08/19 05:27:01;;;;;;;;;;;;;;;17.53;59.26;100250.48;1740859;80;20182;-75
2021/08/19 05:29:27;;;;;;;;;;;;;;;17.55;59.32;100255.17;1746856;80;20177;-75
2021/08/19 05:31:53;;;;;;;;;;;;;;;17.57;59.25;100249.86;1765586;80;20182;-75
2021/08/19 05:34:23;;;;;;;;;;;;;;;17.60;59.35;100257.55;1753853;80;20441;-75
2021/08/19 05:36:49;;;;;;;;;;;;;;;17.64;59.35;100256.02;1754671;80;21593;-76
2021/08/19 05:39:15;;;;;;;;;;;;;;;17.70;59.49;100249.63;1765211;80;20196;-76
2021/08/19 05:41:41;;;;;;;;;;;;;;;17.74;59.45;100255.09;1744979;80;20209;-76
2021/08/19 05:44:07;;;;;;;;;;;;;;;17.75;59.43;100251.09;1741394;80;20778;-76
2021/08/19 05:46:33;;;;;;;;;;;;;;;17.82;59.51;100251.16;1733586;80;20486;-76
2021/08/19 05:49:00;;;;;;;;;;;;;;;17.83;59.36;100247.61;1749667;80;20222;-76
2021/08/19 05:51:26;;;;;;;;;;;;;;;17.90;59.49;100248.14;1743613;80;20182;-76
2021/08/19 05:53:52;;;;;;;;;;;;;;;18.02;59.72;100246.66;1705174;82;20282;-76
2021/08/19 05:56:18;;;;;;;;;;;;;;;18.14;59.51;100244.24;1680946;83;20761;-76
2021/08/19 05:58:44;;;;;;;;;;;;;;;18.29;59.75;100250.41;1686692;83;20203;-75
2021/08/19 06:01:10;;;;;;;;;;;;;;;18.43;59.70;100257.52;1753836;80;20226;-75
2021/08/19 06:03:36;;;;;;;;;;;;;;;18.57;59.67;100251.53;1719550;82;20256;-75
2021/08/19 06:06:02;;;;;;;;;;;;;;;18.74;59.56;100252.77;1706332;82;20225;-75
2021/08/19 06:08:28;;;;;;;;;;;;;;;18.93;59.78;100255.20;1691294;82;20218;-75
2021/08/19 06:10:54;;;;;;;;;;;;;;;19.13;59.62;100253.16;1758004;80;20179;-75
2021/08/19 06:13:20;;;;;;;;;;;;;;;19.24;59.57;100255.59;1753984;80;20233;-75
2021/08/19 06:15:53;;;;;;;;;;;;;;;19.33;59.55;100257.22;1757240;80;20188;-75
2021/08/19 06:18:19;;;;;;;;;;;;;;;19.36;59.45;100264.06;1740192;80;20217;-75
2021/08/19 06:20:45;;;;;;;;;;;;;;;19.38;59.50;100262.20;1757832;80;20161;-75
2021/08/19 06:23:12;;;;;;;;;;;;;;;19.46;59.56;100256.05;1765637;80;20850;-75
2021/08/19 06:25:38;;;;;;;;;;;;;;;19.60;59.53;100258.73;1768418;80;20228;-75
2021/08/19 06:28:06;;;;;;;;;;;;;;;19.73;59.48;100261.48;1753893;80;20152;-75
2021/08/19 06:30:32;;;;;;;;;;;;;;;19.82;59.43;100259.59;1749938;80;20180;-75
2021/08/19 06:33:00;;;;;;;;;;;;;;;19.90;59.32;100262.60;1742483;80;20202;-75
2021/08/19 06:35:26;;;;;;;;;;;;;;;19.93;59.24;100262.88;1746716;80;20229;-75
2021/08/19 06:37:52;;;;;;;;;;;;;;;19.99;59.34;100265.98;1741351;80;21832;-75
2021/08/19 06:40:18;;;;;;;;;;;;;;;20.07;59.30;100256.34;1750697;80;20280;-75
2021/08/19 06:42:44;;;;;;;;;;;;;;;20.05;59.16;100264.30;1747075;80;20198;-75
2021/08/19 06:45:11;;;;;;;;;;;;;;;20.05;59.19;100264.77;1758890;77;20193;-76
2021/08/19 06:47:37;;;;;;;;;;;;;;;20.05;59.18;100259.52;1751032;77;20220;-76
2021/08/19 06:50:03;;;;;;;;;;;;;;;20.06;59.13;100258.59;1711782;81;20189;-76
2021/08/19 06:52:29;;;;;;;;;;;;;;;20.05;59.13;100267.39;1746543;79;20150;-77
2021/08/19 06:54:57;;;;;;;;;;;;;;;19.99;59.03;100265.14;1755227;79;20268;-76
2021/08/19 06:57:23;;;;;;;;;;;;;;;19.95;59.03;100267.11;1724187;81;20183;-75
2021/08/19 06:59:49;;;;;;;;;;;;;;;19.92;59.03;100264.67;1754099;80;20177;-75
2021/08/19 07:02:15;;;;;;;;;;;;;;;19.91;58.93;100268.70;1757727;80;20240;-75
2021/08/19 07:04:43;;;;;;;;;;;;;;;19.86;58.99;100266.34;1744496;80;20191;-77
2021/08/19 07:07:09;;;;;;;;;;;;;;;19.77;58.86;100272.14;1724936;80;20837;-77
2021/08/19 07:09:35;;;;;;;;;;;;;;;19.60;58.86;100271.85;1752057;80;20174;-77
2021/08/19 07:12:01;;;;;;;;;;;;;;;19.46;58.86;100264.75;1747982;80;20548;-77
2021/08/19 07:14:27;;;;;;;;;;;;;;;19.38;58.96;100270.06;1750930;80;21305;-77
2021/08/19 07:16:53;;;;;;;;;;;;;;;19.26;58.94;100266.38;1753124;81;20208;-77
2021/08/19 07:19:19;;;;;;;;;;;;;;;19.19;58.99;100271.62;1746239;80;20184;-77
2021/08/19 07:21:45;;;;;;;;;;;;;;;19.11;58.89;100265.97;1741057;81;20808;-77
2021/08/19 07:24:12;;;;;;;;;;;;;;;19.06;59.04;100273.24;1721697;81;20109;-77
2021/08/19 07:26:38;;;;;;;;;;;;;;;19.00;59.12;100283.60;1721629;80;20414;-77
2021/08/19 07:29:04;;;;;;;;;;;;;;;18.93;59.08;100283.56;1742588;80;20132;-77
2021/08/19 07:31:30;;;;;;;;;;;;;;;18.85;59.20;100283.98;1746281;81;20224;-77
2021/08/19 07:33:56;;;;;;;;;;;;;;;18.76;59.07;100287.58;1736703;81;20149;-77
2021/08/19 07:36:22;;;;;;;;;;;;;;;18.67;59.43;100288.11;1746785;80;20887;-77
2021/08/19 07:38:48;;;;;;;;;;;;;;;18.64;59.50;100287.81;1730352;81;20167;-77
2021/08/19 07:41:26;;;;;;;;;;;;;;;18.65;59.56;100286.88;1732983;81;20529;-77
2021/08/19 07:43:52;;;;;;;;;;;;;;;18.65;59.46;100285.58;1753338;81;20100;-77
2021/08/19 07:46:18;;;;;;;;;;;;;;;18.61;59.45;100287.98;1753778;80;20682;-77
2021/08/19 07:48:44;;;;;;;;;;;;;;;18.58;59.30;100286.80;1743967;81;20276;-77
2021/08/19 07:51:10;;;;;;;;;;;;;;;18.53;59.46;100284.44;1754243;81;20126;-77
2021/08/19 07:53:36;;;;;;;;;;;;;;;18.58;59.69;100289.88;1744607;80;20223;-77
2021/08/19 07:56:02;;;;;;;;;;;;;;;18.64;59.61;100281.27;1741098;80;20208;-77
2021/08/19 07:58:30;;;;;;;;;;;;;;;18.72;59.57;100286.90;1753590;81;20172;-76
2021/08/19 08:00:58;;;;;;;;;;;;;;;18.77;59.44;100286.64;1749800;81;20499;-77
2021/08/19 08:03:25;;;;;;;;;;;;;;;18.83;59.52;100283.69;1748274;80;20166;-77
2021/08/19 08:05:51;;;;;;;;;;;;;;;18.95;59.53;100281.70;1706565;83;20153;-77
2021/08/19 08:08:17;;;;;;;;;;;;;;;19.11;59.51;100290.39;1714341;83;20170;-77
2021/08/19 08:10:45;;;;;;;;;;;;;;;19.22;59.46;100284.55;1700980;82;20121;-77
2021/08/19 08:13:12;;;;;;;;;;;;;;;19.34;59.38;100297.39;1739366;81;20259;-77
2021/08/19 08:15:39;;;;;;;;;;;;;;;19.44;59.38;100293.31;1750370;80;20090;-77
2021/08/19 08:18:06;;;;;;;;;;;;;;;19.59;59.30;100299.02;1756860;80;20098;-77
2021/08/19 08:20:34;;;;;;;;;;;;;;;19.70;59.17;100303.17;1761420;80;20410;-77
2021/08/19 08:23:00;;;;;;;;;;;;;;;19.74;59.06;100304.68;1767662;80;20090;-77
2021/08/19 08:25:26;;;;;;;;;;;;;;;19.74;59.11;100302.05;1769546;80;20786;-77
2021/08/19 08:28:11;;;;;;;;;;;;;;;19.80;59.13;100300.82;1765742;80;20155;-77
2021/08/19 08:30:39;;;;;;;;;;;;;;;19.86;59.13;100299.14;1757294;80;20102;-77
2021/08/19 08:33:05;;;;;;;;;;;;;;;20.05;59.17;100309.39;1758884;80;20114;-77
2021/08/19 08:35:34;;;;;;;;;;;;;;;20.21;59.01;100300.97;1760171;80;20102;-77
2021/08/19 08:38:01;;;;;;;;;;;;;;;20.32;58.96;100306.38;1734849;81;20491;-77
2021/08/19 08:40:27;;;;;;;;;;;;;;;20.41;58.88;100311.58;1732445;81;20103;-77
2021/08/19 08:42:54;;;;;;;;;;;;;;;20.44;58.74;100312.23;1771519;80;20102;-77
2021/08/19 08:45:20;;;;;;;;;;;;;;;20.47;58.75;100315.98;1757898;80;20118;-77
2021/08/19 08:47:46;;;;;;;;;;;;;;;20.44;58.74;100319.27;1767412;80;20124;-78
2021/08/19 08:50:14;;;;;;;;;;;;;;;20.32;58.62;100323.45;1769577;80;20082;-77
2021/08/19 08:52:41;;;;;;;;;;;;;;;20.22;58.63;100326.77;1749673;80;20090;-77
2021/08/19 08:55:07;;;;;;;;;;;;;;;20.17;58.75;100328.34;1760298;80;20083;-77
2021/08/19 08:57:34;;;;;;;;;;;;;;;20.18;58.72;100325.25;1754131;80;20139;-77
2021/08/19 09:00:07;;;;;;;;;;;;;;;20.16;58.68;100322.25;1771259;79;20119;-77
2021/08/19 09:02:33;;;;;;;;;;;;;;;20.22;58.65;100321.04;1764011;80;20110;-77
2021/08/19 09:05:23;;;;;;;;;;;;;;;20.39;58.69;100324.80;1764713;80;22481;-77
2021/08/19 09:07:59;;;;;;;;;;;;;;;20.55;58.50;100323.86;1755949;80;20102;-77
2021/08/19 09:10:30;;;;;;;;;;;;;;;20.62;58.34;100334.36;1729786;81;20087;-77
2021/08/19 09:13:08;;;;;;;;;;;;;;;20.60;58.15;100325.27;1756039;80;20090;-77
2021/08/19 09:15:34;;;;;;;;;;;;;;;20.56;58.04;100325.55;1759682;79;20148;-77
2021/08/19 09:18:02;;;;;;;;;;;;;;;20.52;58.11;100329.30;1720239;81;20088;-77
2021/08/19 09:20:38;;;;;;;;;;;;;;;20.41;58.00;100331.27;1725213;81;20126;-77
2021/08/19 09:23:12;;;;;;;;;;;;;;;20.30;57.90;100341.55;1729277;81;20111;-77
2021/08/19 09:25:40;;;;;;;;;;;;;;;20.23;57.92;100342.42;1732378;81;20119;-77
2021/08/19 09:28:17;;;;;;;;;;;;;;;20.20;57.94;100342.61;1736096;81;20096;-77
2021/08/19 09:30:47;;;;;;;;;;;;;;;20.16;57.91;100345.03;1717284;81;20109;-77
2021/08/19 09:33:15;;;;;;;;;;;;;;;20.12;57.78;100349.63;1726563;81;20119;-77
2021/08/19 09:35:42;;;;;;;;;;;;;;;20.04;57.70;100347.08;1740925;81;20104;-77
2021/08/19 09:38:14;;;;;;;;;;;;;;;19.96;57.62;100354.56;1726610;81;20091;-77
2021/08/19 09:40:40;;;;;;;;;;;;;;;19.90;57.57;100357.54;1732276;81;20092;-77
2021/08/19 09:43:07;;;;;;;;;;;;;;;19.83;57.61;100357.05;1738865;81;20082;-77
2021/08/19 09:45:44;;;;;;;;;;;;;;;19.80;57.55;100358.55;1728203;81;20154;-77
2021/08/19 09:48:12;;;;;;;;;;;;;;;19.79;57.55;100367.35;1726586;81;20406;-77
2021/08/19 09:50:44;;;;;;;;;;;;;;;19.84;57.52;100369.24;1744293;81;20464;-77
2021/08/19 09:53:15;;;;;;;;;;;;;;;19.79;57.35;100364.26;1737621;80;20763;-77
2021/08/19 09:55:43;;;;;;;;;;;;;;;19.69;57.33;100380.65;1729811;81;20154;-77
2021/08/19 09:58:10;;;;;;;;;;;;;;;19.61;57.29;100376.31;1733530;81;20120;-76
2021/08/19 10:00:40;;;;;;;;;;;;;;;19.55;57.25;100386.68;1712559;81;20187;-76
2021/08/19 10:03:06;;;;;;;;;;;;;;;19.49;57.15;100396.17;1732100;81;20102;-76
2021/08/19 10:05:32;;;;;;;;;;;;;;;19.42;57.24;100387.80;1744170;81;20134;-76
2021/08/19 10:07:59;;;;;;;;;;;;;;;19.40;57.25;100388.81;1750787;81;20418;-76
2021/08/19 10:10:26;;;;;;;;;;;;;;;19.38;57.23;100398.55;1723943;82;20127;-76
2021/08/19 10:12:55;;;;;;;;;;;;;;;19.37;57.24;100396.86;1745846;81;20140;-76
2021/08/19 10:15:21;;;;;;;;;;;;;;;19.40;57.28;100401.93;1746425;80;20082;-77
2021/08/19 10:17:52;;;;;;;;;;;;;;;19.42;57.24;100396.98;1768757;80;20131;-77
2021/08/19 10:20:28;;;;;;;;;;;;;;;19.44;57.22;100399.05;1754802;80;20416;-77
2021/08/19 10:22:56;;;;;;;;;;;;;;;19.47;57.15;100401.97;1773510;80;20092;-77
2021/08/19 10:25:24;;;;;;;;;;;;;;;19.52;57.16;100401.74;1754247;80;20106;-77
2021/08/19 10:28:10;;;;;;;;;;;;;;;19.57;57.17;100407.58;1756793;80;20096;-77
2021/08/19 10:30:47;;;;;;;;;;;;;;;19.63;57.11;100404.61;1750691;80;20095;-77
2021/08/19 10:33:33;;;;;;;;;;;;;;;19.68;57.08;100407.35;1746614;80;20106;-77
2021/08/19 10:36:11;;;;;;;;;;;;;;;19.75;57.06;100411.31;1765954;80;20603;-77
2021/08/19 10:38:39;;;;;;;;;;;;;;;19.83;57.04;100409.53;1744201;80;20130;-77
2021/08/19 10:41:31;;;;;;;;;;;;;;;19.91;57.01;100409.94;1759919;80;20098;-77
2021/08/19 10:44:03;;;;;;;;;;;;;;;19.97;57.00;100417.45;1763488;80;20125;-77
2021/08/19 10:46:41;;;;;;;;;;;;;;;20.08;56.96;100418.15;1755235;80;20492;-77
2021/08/19 10:49:07;;;;;;;;;;;;;;;20.07;56.86;100416.45;1764587;80;20098;-77
2021/08/19 10:51:33;;;;;;;;;;;;;;;20.08;56.92;100412.43;1764716;80;20097;-77
2021/08/19 10:54:02;;;;;;;;;;;;;;;20.16;56.85;100417.23;1751346;80;20098;-77
2021/08/19 10:56:45;;;;;;;;;;;;;;;20.23;56.73;100419.03;1724199;82;20463;-77
2021/08/19 10:59:30;;;;;;;;;;;;;;;20.24;56.71;100421.57;1762858;80;20100;-76
2021/08/19 11:01:56;;;;;;;;;;;;;;;20.33;56.67;100421.46;1763152;80;20137;-76
2021/08/19 11:04:42;;;;;;;;;;;;;;;20.34;56.63;100424.47;1725932;80;20095;-76
2021/08/19 11:07:09;;;;;;;;;;;;;;;20.27;56.56;100429.27;1752766;80;20100;-76
2021/08/19 11:09:37;;;;;;;;;;;;;;;20.20;56.46;100427.09;1761775;78;210914;-76
2021/08/19 11:12:05;;;;;;;;;;;;;;;20.06;56.47;100440.55;1760027;80;21388;-76
2021/08/19 11:14:31;;;;;;;;;;;;;;;19.98;56.55;100440.61;1740241;80;20102;-76
2021/08/19 11:16:58;;;;;;;;;;;;;;;19.97;56.63;100436.30;1687134;80;5000526;-76
2021/08/19 11:19:31;;;;;;;;;;;;;;;19.97;56.62;100441.08;1686427;83;20127;-76
2021/08/19 11:22:03;;;;;;;;;;;;;;;20.04;56.64;100437.17;1697387;83;20197;-76
2021/08/19 11:24:31;;;;;;;;;;;;;;;20.22;56.66;100435.72;1688265;83;20137;-76
2021/08/19 11:27:09;;;;;;;;;;;;;;;20.36;56.49;100433.09;1696651;83;20452;-76
2021/08/19 11:29:43;;;;;;;;;;;;;;;20.43;56.37;100444.49;1702075;80;20121;-76
2021/08/19 11:32:12;;;;;;;;;;;;;;;20.55;56.34;100446.86;1753882;80;20193;-76
2021/08/19 11:34:50;;;;;;;;;;;;;;;20.67;56.38;100446.13;1748278;80;20418;-76
2021/08/19 11:37:27;;;;;;;;;;;;;;;20.77;56.34;100444.63;1746525;80;20767;-76
2021/08/19 11:40:05;;;;;;;;;;;;;;;20.90;56.16;100447.80;1751086;80;20126;-76
2021/08/19 11:42:34;;;;;;;;;;;;;;;21.06;56.20;100448.07;1740846;80;20131;-76
2021/08/19 11:45:19;;;;;;;;;;;;;;;21.22;56.17;100444.05;1759803;80;20099;-76
2021/08/19 11:47:45;;;;;;;;;;;;;;;21.44;56.13;100449.61;1743480;80;20122;-76
2021/08/19 11:50:11;;;;;;;;;;;;;;;21.64;56.04;100447.50;1742415;80;20473;-76
2021/08/19 11:52:38;;;;;;;;;;;;;;;21.76;55.80;100450.19;1728920;80;20162;-76
2021/08/19 11:55:05;;;;;;;;;;;;;;;21.85;55.75;100450.50;1745015;80;20513;-76
2021/08/19 11:57:30;;;;;;;;;;;;;;;;;;1746892;80;20422;-76
2021/08/19 12:00:02;;;;;;;;;;;;;;;21.94;55.75;100454.69;1769083;80;20733;-76
2021/08/19 12:02:28;;;;;;;;;;;;;;;21.97;55.59;100454.48;1749124;80;20125;-76
2021/08/19 12:05:03;;;;;;;;;;;;;;;21.96;55.66;100447.53;1742116;80;20804;-76
2021/08/19 12:07:29;;;;;;;;;;;;;;;21.98;55.55;100460.59;1727380;80;20493;-76
2021/08/19 12:09:55;;;;;;;;;;;;;;;22.05;55.48;100465.39;1749490;80;20189;-76
2021/08/19 12:12:25;;;;;;;;;;;;;;;22.02;55.30;100472.18;1754919;80;20082;-76
2021/08/19 12:14:50;;;;;;;;;;;;;;;21.90;55.23;100466.84;1766115;80;20727;-76
2021/08/19 12:17:17;;;;;;;;;;;;;;;21.83;55.13;100474.32;1747634;80;20119;-76
2021/08/19 12:19:43;;;;;;;;;;;;;;;21.80;55.20;100473.20;1760786;80;20420;-76
2021/08/19 12:22:09;;;;;;;;;;;;;;;21.78;55.16;100477.25;1747664;80;20098;-76
2021/08/19 12:24:41;;;;;;;;;;;;;;;21.70;55.19;100462.89;1749209;80;20505;-76
2021/08/19 12:27:15;;;;;;;;;;;;;;;21.70;55.01;100470.32;1721916;81;20497;-76
2021/08/19 12:29:52;;;;;;;;;;;;;;;21.73;55.07;100466.64;1699618;82;20442;-76
2021/08/19 12:32:34;;;;;;;;;;;;;;;21.75;55.01;100470.87;1710746;82;20527;-76
2021/08/19 12:35:07;;;;;;;;;;;;;;;21.83;55.08;100474.32;1755131;80;20404;-76
2021/08/19 12:37:35;;;;;;;;;;;;;;;21.92;54.95;100475.48;1755330;80;20406;-76
2021/08/19 12:40:09;;;;;;;;;;;;;;;21.94;54.70;100463.06;1749352;80;20403;-76
2021/08/19 12:42:37;;;;;;;;;;;;;;;21.93;54.75;100472.75;1747005;80;20557;-76